Terminal Aerodrome Forecast
Issued by NWS

Home | Current Version | Previous Version | Text Only | Print | Product List | Glossary On
Versions: 1 2 3 4 5 6 7 8 9 10 11 12 13 14 15 16 17 18 19 20 21 22 23 24 25 26 27 28 29 30 31 32 33 34 35 36 37 38 39 40 41 42 43 44 45 46
000
FTUS44 KHGX 272320
TAFUTS
TAF
KUTS 272320Z 2800/2824 05007KT P6SM SCT030 BKN090
     FM280400 05006KT P6SM SCT015 OVC035
     FM280900 05005KT P6SM SCT015 OVC025
     FM281500 07006KT P6SM BKN025 OVC045
     FM281900 08007KT P6SM SCT025 BKN070=

USA.gov is the U.S. government's official web portal to all federal, state and local government web resources and services.